Time;durP1;ratioP1;P1;durP2;ratioP2;P2;SDS_P1;SDS_P2;PMS_P1;PMS_P2;Temp;Humidity;BMP_temperature;BMP_pressure;BME280_temperature;BME280_humidity;BME280_pressure;Samples;Min_cycle;Max_cycle;Signal;HPM_P1;HPM_P2
2023/01/26 00:02:12;;;;;;;;;;;;;;;;;;5117392;28;816;-72
2023/01/26 00:04:37;;;;;;;;;;;;;;;;;;5117583;28;828;-72
2023/01/26 00:07:03;;;;;;;;;;;;;;;;;;5118129;28;1920;-72
2023/01/26 00:09:28;;;;;;;;;;;;;;;;;;5120108;28;1186;-73
2023/01/26 00:11:53;;;;;;;;;;;;;;;;;;5119327;28;927;-72
2023/01/26 00:14:18;;;;;;;;;;;;;;;;;;5118941;28;897;-72
2023/01/26 00:16:44;;;;;;;;;;;;;;;;;;5118589;28;926;-72
2023/01/26 00:19:09;;;;;;;;;;;;;;;;;;5118709;28;887;-72
2023/01/26 00:21:34;;;;;;;;;;;;;;;;;;5117851;28;1101;-72
2023/01/26 00:24:00;;;;;;;;;;;;;;;;;;5118171;28;1011;-73
2023/01/26 00:26:26;;;;;;;;;;;;;;;;;;5117320;28;1901;-72
2023/01/26 00:28:52;;;;;;;;;;;;;;;;;;5118311;28;1320;-71
2023/01/26 00:31:22;;;;;;;;;;;;;;;;;;5118860;28;875;-72
2023/01/26 00:33:47;;;;;;;;;;;;;;;;;;5125083;28;1037;-72
2023/01/26 00:36:13;;;;;;;;;;;;;;;;;;5124128;28;1235;-71
2023/01/26 00:38:39;;;;;;;;;;;;;;;;;;5123243;28;1233;-74
2023/01/26 00:41:04;;;;;;;;;;;;;;;;;;5123465;28;1237;-73
2023/01/26 00:43:30;;;;;;;;;;;;;;;;;;5123992;28;859;-72
2023/01/26 00:45:55;;;;;;;;;;;;;;;;;;5122470;28;1882;-74
2023/01/26 00:48:20;;;;;;;;;;;;;;;;;;5123484;28;990;-72
2023/01/26 00:50:45;;;;;;;;;;;;;;;;;;5122449;28;1018;-73
2023/01/26 00:53:11;;;;;;;;;;;;;;;;;;5122182;28;978;-72
2023/01/26 00:55:36;;;;;;;;;;;;;;;;;;5122526;28;1100;-71
2023/01/26 00:58:03;;;;;;;;;;;;;;;;;;5121678;28;1095;-72
2023/01/26 01:00:29;;;;;;;;;;;;;;;;;;5121941;28;820;-72
2023/01/26 01:02:55;;;;;;;;;;;;;;;;;;5120873;28;1010;-73
2023/01/26 01:05:21;;;;;;;;;;;;;;;;;;5119596;28;1906;-72
2023/01/26 01:07:47;;;;;;;;;;;;;;;;;;5098383;28;1390;-74
2023/01/26 01:10:12;;;;;;;;;;;;;;;;;;5113662;28;883;-73
2023/01/26 01:12:38;;;;;;;;;;;;;;;;;;5116248;28;1342;-72
2023/01/26 01:15:04;;;;;;;;;;;;;;;;;;5105682;28;1299;-72
2023/01/26 01:17:29;;;;;;;;;;;;;;;;;;5093103;28;1077;-73
2023/01/26 01:19:54;;;;;;;;;;;;;;;;;;5092982;28;935;-72
2023/01/26 01:22:19;;;;;;;;;;;;;;;;;;5093486;28;907;-72
2023/01/26 01:24:45;;;;;;;;;;;;;;;;;;5091078;28;1221;-73
2023/01/26 01:27:10;;;;;;;;;;;;;;;;;;5074202;28;1965;-72
2023/01/26 01:29:35;;;;;;;;;;;;;;;;;;5091018;28;959;-72
2023/01/26 01:32:01;;;;;;;;;;;;;;;;;;5091222;28;1179;-72
2023/01/26 01:34:26;;;;;;;;;;;;;;;;;;5089241;28;900;-72
2023/01/26 01:36:51;;;;;;;;;;;;;;;;;;5091008;28;908;-72
2023/01/26 01:39:17;;;;;;;;;;;;;;;;;;5091201;28;864;-72
2023/01/26 01:41:42;;;;;;;;;;;;;;;;;;5092842;28;981;-72
2023/01/26 01:44:16;;;;;;;;;;;;;;;;;;5092475;28;869;-72
2023/01/26 01:46:43;;;;;;;;;;;;;;;;;;5092444;28;1905;-72
2023/01/26 01:49:09;;;;;;;;;;;;;;;;;;5091382;28;1052;-73
2023/01/26 01:51:40;;;;;;;;;;;;;;;;;;5091366;28;1133;-72
2023/01/26 01:54:09;;;;;;;;;;;;;;;;;;5091266;28;1245;-72
2023/01/26 01:56:36;;;;;;;;;;;;;;;;;;5092302;28;916;-73
2023/01/26 01:59:02;;;;;;;;;;;;;;;;;;5091856;28;1313;-72
2023/01/26 02:01:28;;;;;;;;;;;;;;;;;;5096860;28;1167;-73
2023/01/26 02:03:55;;;;;;;;;;;;;;;;;;5101434;28;828;-72
2023/01/26 02:06:28;;;;;;;;;;;;;;;;;;5097536;28;1909;-72
2023/01/26 02:08:54;;;;;;;;;;;;;;;;;;5091218;28;1182;-72
2023/01/26 02:11:32;;;;;;;;;;;;;;;;;;5092566;28;1180;-72
2023/01/26 02:13:59;;;;;;;;;;;;;;;;;;5098806;28;1289;-71
2023/01/26 02:16:24;;;;;;;;;;;;;;;;;;5099359;28;1430;-73
2023/01/26 02:18:50;;;;;;;;;;;;;;;;;;5097842;28;1215;-72
2023/01/26 02:21:17;;;;;;;;;;;;;;;;;;5073799;28;1285;-72
2023/01/26 02:23:42;;;;;;;;;;;;;;;;;;5092085;28;879;-72
2023/01/26 02:26:10;;;;;;;;;;;;;;;;;;5090786;28;1907;-72
2023/01/26 02:28:36;;;;;;;;;;;;;;;;;;5091115;28;1320;-72
2023/01/26 02:31:02;;;;;;;;;;;;;;;;;;5090798;28;782;-72
2023/01/26 02:33:29;;;;;;;;;;;;;;;;;;5092012;28;1061;-73
2023/01/26 02:35:55;;;;;;;;;;;;;;;;;;5091257;28;903;-72
2023/01/26 02:38:21;;;;;;;;;;;;;;;;;;5090174;28;1182;-73
2023/01/26 02:40:54;;;;;;;;;;;;;;;;;;5090555;28;1336;-73
2023/01/26 02:43:20;;;;;;;;;;;;;;;;;;5091342;28;903;-72
2023/01/26 02:45:45;;;;;;;;;;;;;;;;;;5090043;28;1917;-73
2023/01/26 02:48:10;;;;;;;;;;;;;;;;;;5092756;28;910;-72
2023/01/26 02:50:36;;;;;;;;;;;;;;;;;;5095309;28;883;-72
2023/01/26 02:53:02;;;;;;;;;;;;;;;;;;5095384;28;841;-73
2023/01/26 02:55:27;;;;;;;;;;;;;;;;;;5093978;28;1156;-72
2023/01/26 02:57:54;;;;;;;;;;;;;;;;;;5094074;28;1261;-73
2023/01/26 03:00:21;;;;;;;;;;;;;;;;;;5095090;28;924;-72
2023/01/26 03:02:48;;;;;;;;;;;;;;;;;;5093839;28;1069;-73
2023/01/26 03:05:13;;;;;;;;;;;;;;;;;;5093468;28;1918;-73
2023/01/26 03:07:38;;;;;;;;;;;;;;;;;;5093638;28;1106;-73
2023/01/26 03:10:04;;;;;;;;;;;;;;;;;;5093560;28;852;-72
2023/01/26 03:12:30;;;;;;;;;;;;;;;;;;5094881;28;757;-72
2023/01/26 03:17:39;;;;;;;;;;;;;;;;;;5093828;28;669;-72
2023/01/26 03:28:21;;;;;;;;;;;;;;;;;;5094148;28;700;-72
2023/01/26 03:30:50;;;;;;;;;;;;;;;;;;5093254;28;1201;-73
2023/01/26 03:33:16;;;;;;;;;;;;;;;;;;5093305;28;1410;-72
2023/01/26 03:35:41;;;;;;;;;;;;;;;;;;5093601;28;1091;-72
2023/01/26 03:38:07;;;;;;;;;;;;;;;;;;5093724;28;1148;-72
2023/01/26 03:56:58;;;;;;;;;;;;;;;;;;5094909;28;638;-72
2023/01/26 03:59:36;;;;;;;;;;;;;;;;;;5092344;28;1143;-72
2023/01/26 04:10:14;;;;;;;;;;;;;;;;;;5093841;28;700;-72
2023/01/26 04:12:39;;;;;;;;;;;;;;;;;;5093838;28;988;-72
2023/01/26 04:23:18;;;;;;;;;;;;;;;;;;5094370;28;806;-73
2023/01/26 04:25:43;;;;;;;;;;;;;;;;;;5091782;28;1894;-72
2023/01/26 04:28:08;;;;;;;;;;;;;;;;;;5091847;28;1158;-72
2023/01/26 04:30:34;;;;;;;;;;;;;;;;;;5091926;28;900;-73
2023/01/26 04:32:59;;;;;;;;;;;;;;;;;;5075118;28;1140;-72
2023/01/26 04:35:24;;;;;;;;;;;;;;;;;;5092176;28;852;-72
2023/01/26 04:37:49;;;;;;;;;;;;;;;;;;5075328;28;1200;-72
2023/01/26 04:40:15;;;;;;;;;;;;;;;;;;5092250;28;1043;-72
2023/01/26 04:42:40;;;;;;;;;;;;;;;;;;5092825;28;880;-72
2023/01/26 04:45:06;;;;;;;;;;;;;;;;;;5099362;28;1898;-72
2023/01/26 04:47:31;;;;;;;;;;;;;;;;;;5108982;28;959;-73
2023/01/26 04:49:56;;;;;;;;;;;;;;;;;;5091956;28;840;-72
2023/01/26 04:52:22;;;;;;;;;;;;;;;;;;5092725;28;895;-73
2023/01/26 04:54:48;;;;;;;;;;;;;;;;;;5092039;28;868;-72
2023/01/26 04:57:13;;;;;;;;;;;;;;;;;;5091420;28;1253;-73
2023/01/26 04:59:38;;;;;;;;;;;;;;;;;;5093336;28;1010;-72
2023/01/26 05:02:04;;;;;;;;;;;;;;;;;;5093405;28;959;-72
2023/01/26 05:04:29;;;;;;;;;;;;;;;;;;5076185;28;1305;-72
2023/01/26 05:06:54;;;;;;;;;;;;;;;;;;5075336;28;1902;-72
2023/01/26 05:09:20;;;;;;;;;;;;;;;;;;5091806;28;1241;-72
2023/01/26 05:11:45;;;;;;;;;;;;;;;;;;5074586;28;1289;-72
2023/01/26 05:14:10;;;;;;;;;;;;;;;;;;5093149;28;785;-72
2023/01/26 05:16:36;;;;;;;;;;;;;;;;;;5092889;28;836;-72
2023/01/26 05:19:01;;;;;;;;;;;;;;;;;;5091706;28;793;-72
2023/01/26 05:21:27;;;;;;;;;;;;;;;;;;5092671;28;907;-72
2023/01/26 05:23:52;;;;;;;;;;;;;;;;;;5091555;28;899;-72
2023/01/26 05:26:18;;;;;;;;;;;;;;;;;;5092087;28;1964;-73
2023/01/26 05:28:43;;;;;;;;;;;;;;;;;;5093068;28;892;-72
2023/01/26 05:31:08;;;;;;;;;;;;;;;;;;5091106;28;1150;-72
2023/01/26 05:33:33;;;;;;;;;;;;;;;;;;5093175;28;809;-72
2023/01/26 05:36:03;;;;;;;;;;;;;;;;;;5090774;28;1182;-72
2023/01/26 05:38:28;;;;;;;;;;;;;;;;;;5092229;28;955;-72
2023/01/26 05:40:53;;;;;;;;;;;;;;;;;;5090793;28;904;-72
2023/01/26 05:43:18;;;;;;;;;;;;;;;;;;5092439;28;953;-73
2023/01/26 05:45:44;;;;;;;;;;;;;;;;;;5092071;28;1902;-73
2023/01/26 05:48:09;;;;;;;;;;;;;;;;;;5091945;28;906;-73
2023/01/26 05:50:34;;;;;;;;;;;;;;;;;;5073985;28;1205;-73
2023/01/26 05:53:01;;;;;;;;;;;;;;;;;;5073843;28;1174;-74
2023/01/26 05:55:27;;;;;;;;;;;;;;;;;;5073477;28;1147;-73
2023/01/26 05:57:52;;;;;;;;;;;;;;;;;;5091808;28;947;-73
2023/01/26 06:00:17;;;;;;;;;;;;;;;;;;5090216;28;860;-73
2023/01/26 06:02:43;;;;;;;;;;;;;;;;;;5091756;28;911;-73
2023/01/26 06:05:08;;;;;;;;;;;;;;;;;;5091969;28;1897;-72
2023/01/26 06:07:34;;;;;;;;;;;;;;;;;;5090204;28;1194;-72
2023/01/26 06:09:59;;;;;;;;;;;;;;;;;;5090914;28;1056;-72
2023/01/26 06:12:27;;;;;;;;;;;;;;;;;;5091324;28;931;-71
2023/01/26 06:14:52;;;;;;;;;;;;;;;;;;5089857;28;1201;-71
2023/01/26 06:17:17;;;;;;;;;;;;;;;;;;5090072;28;1091;-72
2023/01/26 06:19:43;;;;;;;;;;;;;;;;;;5092394;28;762;-72
2023/01/26 06:22:09;;;;;;;;;;;;;;;;;;5090992;28;1144;-71
2023/01/26 06:24:34;;;;;;;;;;;;;;;;;;5090702;28;1288;-71
2023/01/26 06:27:00;;;;;;;;;;;;;;;;;;5091614;28;1913;-71
2023/01/26 06:29:25;;;;;;;;;;;;;;;;;;5090460;28;939;-71
2023/01/26 06:31:52;;;;;;;;;;;;;;;;;;5092419;28;825;-71
2023/01/26 06:34:17;;;;;;;;;;;;;;;;;;5090673;28;1169;-71
2023/01/26 06:36:43;;;;;;;;;;;;;;;;;;5092025;28;1174;-72
2023/01/26 06:39:10;;;;;;;;;;;;;;;;;;5074106;28;1110;-72
2023/01/26 06:41:35;;;;;;;;;;;;;;;;;;5091610;28;872;-71
2023/01/26 06:44:00;;;;;;;;;;;;;;;;;;5090037;28;887;-72
2023/01/26 06:46:26;;;;;;;;;;;;;;;;;;5089528;28;1979;-72
2023/01/26 06:48:52;;;;;;;;;;;;;;;;;;5095090;28;1223;-71
2023/01/26 06:51:18;;;;;;;;;;;;;;;;;;5081935;28;1243;-71
2023/01/26 06:53:47;;;;;;;;;;;;;;;;;;5103452;28;1257;-71
2023/01/26 06:56:13;;;;;;;;;;;;;;;;;;5100693;28;1255;-71
2023/01/26 06:58:38;;;;;;;;;;;;;;;;;;5074755;28;1277;-71
2023/01/26 07:01:04;;;;;;;;;;;;;;;;;;5072933;28;1424;-71
2023/01/26 07:03:29;;;;;;;;;;;;;;;;;;5089821;28;1091;-71
2023/01/26 07:05:54;;;;;;;;;;;;;;;;;;5073271;28;1909;-71
2023/01/26 07:08:20;;;;;;;;;;;;;;;;;;5091455;28;783;-71
2023/01/26 07:10:45;;;;;;;;;;;;;;;;;;5073463;28;1278;-71
2023/01/26 07:13:10;;;;;;;;;;;;;;;;;;5091758;28;1189;-71
2023/01/26 07:15:36;;;;;;;;;;;;;;;;;;5073206;28;1163;-71
2023/01/26 07:18:01;;;;;;;;;;;;;;;;;;5090086;28;983;-72
2023/01/26 07:20:26;;;;;;;;;;;;;;;;;;5090450;28;940;-71
2023/01/26 07:22:52;;;;;;;;;;;;;;;;;;5089882;28;1220;-71
2023/01/26 07:25:18;;;;;;;;;;;;;;;;;;5072068;28;2049;-71
2023/01/26 07:27:43;;;;;;;;;;;;;;;;;;5072632;28;1476;-71
2023/01/26 07:30:09;;;;;;;;;;;;;;;;;;5089858;28;943;-71
2023/01/26 07:32:34;;;;;;;;;;;;;;;;;;5089833;28;966;-71
2023/01/26 07:34:59;;;;;;;;;;;;;;;;;;5093003;28;1125;-71
2023/01/26 07:37:28;;;;;;;;;;;;;;;;;;5094033;28;884;-71
2023/01/26 07:39:53;;;;;;;;;;;;;;;;;;5096167;28;907;-71
2023/01/26 07:42:18;;;;;;;;;;;;;;;;;;5095259;28;896;-70
2023/01/26 07:44:44;;;;;;;;;;;;;;;;;;5077372;28;1262;-71
2023/01/26 07:47:10;;;;;;;;;;;;;;;;;;5093087;28;1993;-71
2023/01/26 07:49:35;;;;;;;;;;;;;;;;;;5092712;28;1433;-71
2023/01/26 07:52:00;;;;;;;;;;;;;;;;;;5094355;28;872;-71
2023/01/26 07:54:26;;;;;;;;;;;;;;;;;;5092683;28;1230;-71
2023/01/26 07:56:53;;;;;;;;;;;;;;;;;;5094302;28;867;-71
2023/01/26 07:59:18;;;;;;;;;;;;;;;;;;5093442;28;1301;-71
2023/01/26 08:01:44;;;;;;;;;;;;;;;;;;5102157;28;1131;-70
2023/01/26 08:04:10;;;;;;;;;;;;;;;;;;5102193;28;1212;-71
2023/01/26 08:06:35;;;;;;;;;;;;;;;;;;5103303;28;1915;-71
2023/01/26 08:09:01;;;;;;;;;;;;;;;;;;5094869;28;817;-71
2023/01/26 08:11:26;;;;;;;;;;;;;;;;;;5094361;28;872;-71
2023/01/26 08:13:52;;;;;;;;;;;;;;;;;;5094164;28;832;-71
2023/01/26 08:16:17;;;;;;;;;;;;;;;;;;5094241;28;907;-71
2023/01/26 08:18:44;;;;;;;;;;;;;;;;;;5092887;28;1543;-70
2023/01/26 08:21:10;;;;;;;;;;;;;;;;;;5094184;28;1013;-71
2023/01/26 08:23:35;;;;;;;;;;;;;;;;;;5093125;28;895;-71
2023/01/26 08:26:05;;;;;;;;;;;;;;;;;;5091985;28;1969;-71
2023/01/26 08:28:31;;;;;;;;;;;;;;;;;;5091931;28;1290;-71
2023/01/26 08:31:02;;;;;;;;;;;;;;;;;;5093579;28;919;-71
2023/01/26 08:33:27;;;;;;;;;;;;;;;;;;5091988;28;1305;-71
2023/01/26 08:35:52;;;;;;;;;;;;;;;;;;5092678;28;1209;-71
2023/01/26 08:38:17;;;;;;;;;;;;;;;;;;5075044;28;1273;-70
2023/01/26 08:40:43;;;;;;;;;;;;;;;;;;5074775;28;1170;-71
2023/01/26 08:43:08;;;;;;;;;;;;;;;;;;5093788;28;804;-71
2023/01/26 08:45:33;;;;;;;;;;;;;;;;;;5093147;28;1910;-71
2023/01/26 08:47:58;;;;;;;;;;;;;;;;;;5091664;28;999;-71
2023/01/26 08:50:24;;;;;;;;;;;;;;;;;;5091750;28;1173;-71
2023/01/26 08:52:49;;;;;;;;;;;;;;;;;;5092106;28;1340;-71
2023/01/26 08:55:15;;;;;;;;;;;;;;;;;;5091993;28;1078;-71
2023/01/26 08:57:40;;;;;;;;;;;;;;;;;;5091898;28;1142;-71
2023/01/26 09:00:06;;;;;;;;;;;;;;;;;;5093708;28;931;-71
2023/01/26 09:02:31;;;;;;;;;;;;;;;;;;5092730;28;1046;-71
2023/01/26 09:04:57;;;;;;;;;;;;;;;;;;5092102;28;868;-71
2023/01/26 09:07:22;;;;;;;;;;;;;;;;;;5097611;28;1897;-71
2023/01/26 09:09:47;;;;;;;;;;;;;;;;;;5104065;28;1176;-71
2023/01/26 09:12:12;;;;;;;;;;;;;;;;;;5109242;28;1199;-71
2023/01/26 09:14:38;;;;;;;;;;;;;;;;;;5091850;28;1134;-71
2023/01/26 09:17:03;;;;;;;;;;;;;;;;;;5073938;28;1167;-71
2023/01/26 09:19:28;;;;;;;;;;;;;;;;;;5074293;28;1241;-71
2023/01/26 09:21:53;;;;;;;;;;;;;;;;;;5091512;28;900;-71
2023/01/26 09:24:20;;;;;;;;;;;;;;;;;;5074508;28;1270;-71
2023/01/26 09:26:45;;;;;;;;;;;;;;;;;;5074279;28;1965;-71
2023/01/26 09:29:10;;;;;;;;;;;;;;;;;;5091846;28;926;-71
2023/01/26 09:31:35;;;;;;;;;;;;;;;;;;5091741;28;955;-71
2023/01/26 09:34:01;;;;;;;;;;;;;;;;;;5092094;28;1193;-71
2023/01/26 09:36:26;;;;;;;;;;;;;;;;;;5074854;28;1346;-71
2023/01/26 09:38:52;;;;;;;;;;;;;;;;;;5075153;28;1139;-72
2023/01/26 09:41:42;;;;;;;;;;;;;;;;;;5091901;28;1163;-71
2023/01/26 09:44:15;;;;;;;;;;;;;;;;;;5088401;28;1191;-71
2023/01/26 09:46:52;;;;;;;;;;;;;;;;;;5104123;28;1923;-71
2023/01/26 09:49:20;;;;;;;;;;;;;;;;;;5101797;28;1170;-71
2023/01/26 09:51:52;;;;;;;;;;;;;;;;;;5097229;28;1194;-71
2023/01/26 09:54:26;;;;;;;;;;;;;;;;;;5112642;28;982;-71
2023/01/26 09:56:53;;;;;;;;;;;;;;;;;;5110602;28;1317;-71
2023/01/26 09:59:30;;;;;;;;;;;;;;;;;;5112538;28;938;-72
2023/01/26 10:02:16;;;;;;;;;;;;;;;;;;5111022;28;1345;-71
2023/01/26 10:04:44;;;;;;;;;;;;;;;;;;5110824;28;1229;-71
2023/01/26 10:07:11;;;;;;;;;;;;;;;;;;5110916;28;1913;-71
2023/01/26 10:09:37;;;;;;;;;;;;;;;;;;5108839;28;1148;-71
2023/01/26 10:12:23;;;;;;;;;;;;;;;;;;5110736;28;1197;-71
2023/01/26 10:14:50;;;;;;;;;;;;;;;;;;5099643;28;1270;-71
2023/01/26 10:17:27;;;;;;;;;;;;;;;;;;5110874;28;1101;-71
2023/01/26 10:20:02;;;;;;;;;;;;;;;;;;5110902;28;1146;-71
2023/01/26 10:22:35;;;;;;;;;;;;;;;;;;5111667;28;961;-71
2023/01/26 10:25:00;;;;;;;;;;;;;;;;;;5110554;28;1331;-71
2023/01/26 10:27:29;;;;;;;;;;;;;;;;;;5110188;28;1914;-71
2023/01/26 10:29:54;;;;;;;;;;;;;;;;;;5112313;28;840;-71
2023/01/26 10:32:19;;;;;;;;;;;;;;;;;;5111721;28;1164;-71
2023/01/26 10:34:46;;;;;;;;;;;;;;;;;;5093830;28;1238;-71
2023/01/26 10:37:19;;;;;;;;;;;;;;;;;;5112074;28;1077;-71
2023/01/26 10:40:10;;;;;;;;;;;;;;;;;;5111774;28;844;-71
2023/01/26 10:42:36;;;;;;;;;;;;;;;;;;5109729;28;1110;-71
2023/01/26 10:45:22;;;;;;;;;;;;;;;;;;5112043;28;1147;-71
2023/01/26 10:48:04;;;;;;;;;;;;;;;;;;5104006;28;1119;-71
2023/01/26 10:50:30;;;;;;;;;;;;;;;;;;5110676;28;1181;-71
2023/01/26 10:53:03;;;;;;;;;;;;;;;;;;5112808;28;844;-71
2023/01/26 10:55:29;;;;;;;;;;;;;;;;;;5112223;28;911;-71
2023/01/26 10:57:54;;;;;;;;;;;;;;;;;;5111202;28;1059;-71
2023/01/26 11:00:20;;;;;;;;;;;;;;;;;;5094114;28;1100;-71
2023/01/26 11:02:50;;;;;;;;;;;;;;;;;;5111214;28;1189;-71
2023/01/26 11:05:18;;;;;;;;;;;;;;;;;;5112756;28;887;-71
2023/01/26 11:07:45;;;;;;;;;;;;;;;;;;5110806;28;1338;-71
2023/01/26 11:10:18;;;;;;;;;;;;;;;;;;5116677;28;887;-72
2023/01/26 11:12:43;;;;;;;;;;;;;;;;;;5116135;28;948;-71
2023/01/26 11:15:17;;;;;;;;;;;;;;;;;;5115238;28;884;-71
2023/01/26 11:17:58;;;;;;;;;;;;;;;;;;5114859;28;1170;-71
2023/01/26 11:20:32;;;;;;;;;;;;;;;;;;5116043;28;910;-71
2023/01/26 11:22:57;;;;;;;;;;;;;;;;;;5114769;28;1157;-71
2023/01/26 11:25:44;;;;;;;;;;;;;;;;;;5115403;28;1910;-71
2023/01/26 11:28:20;;;;;;;;;;;;;;;;;;5114082;28;1260;-71
2023/01/26 11:31:02;;;;;;;;;;;;;;;;;;5115312;28;891;-71
2023/01/26 11:33:27;;;;;;;;;;;;;;;;;;5115298;28;1006;-71
2023/01/26 11:36:01;;;;;;;;;;;;;;;;;;5113487;28;1158;-71
2023/01/26 11:38:26;;;;;;;;;;;;;;;;;;5115101;28;990;-72
2023/01/26 11:41:07;;;;;;;;;;;;;;;;;;5102436;28;1266;-71
2023/01/26 11:43:41;;;;;;;;;;;;;;;;;;5093015;28;1190;-71
2023/01/26 11:46:09;;;;;;;;;;;;;;;;;;5094648;28;1914;-71
2023/01/26 11:49:01;;;;;;;;;;;;;;;;;;5092980;28;1192;-70
2023/01/26 11:51:47;;;;;;;;;;;;;;;;;;5089972;28;1257;-71
2023/01/26 11:54:26;;;;;;;;;;;;;;;;;;5094574;28;903;-71
2023/01/26 11:56:55;;;;;;;;;;;;;;;;;;5092882;28;1139;-71
2023/01/26 11:59:24;;;;;;;;;;;;;;;;;;5093314;28;1269;-71
2023/01/26 12:01:52;;;;;;;;;;;;;;;;;;5092874;28;1131;-71
2023/01/26 12:04:19;;;;;;;;;;;;;;;;;;5093041;28;1225;-71
2023/01/26 12:06:46;;;;;;;;;;;;;;;;;;5093708;28;1973;-71
2023/01/26 12:09:11;;;;;;;;;;;;;;;;;;5094316;28;825;-71
2023/01/26 12:11:39;;;;;;;;;;;;;;;;;;5093803;28;817;-71
2023/01/26 12:14:10;;;;;;;;;;;;;;;;;;5094204;28;884;-71
2023/01/26 12:16:41;;;;;;;;;;;;;;;;;;5094224;28;1046;-71
2023/01/26 12:19:13;;;;;;;;;;;;;;;;;;5092612;28;1288;-71
2023/01/26 12:21:42;;;;;;;;;;;;;;;;;;5092733;28;1272;-71
2023/01/26 12:24:11;;;;;;;;;;;;;;;;;;5094209;28;824;-71
2023/01/26 12:26:41;;;;;;;;;;;;;;;;;;5092773;28;2003;-71
2023/01/26 12:29:27;;;;;;;;;;;;;;;;;;5094097;28;1357;-71
2023/01/26 12:32:12;;;;;;;;;;;;;;;;;;5092357;28;1103;-71
2023/01/26 12:34:38;;;;;;;;;;;;;;;;;;5093861;28;935;-70
2023/01/26 12:37:43;;;;;;;;;;;;;;;;;;5075522;28;1368;-71
2023/01/26 12:40:14;;;;;;;;;;;;;;;;;;5034321;28;1262;-71
2023/01/26 12:42:48;;;;;;;;;;;;;;;;;;5050992;28;821;-71
2023/01/26 12:45:20;;;;;;;;;;;;;;;;;;5074649;28;954;-71
2023/01/26 12:47:55;;;;;;;;;;;;;;;;;;5091589;28;1898;-70
2023/01/26 12:50:24;;;;;;;;;;;;;;;;;;5092738;28;1250;-71
2023/01/26 12:53:04;;;;;;;;;;;;;;;;;;5092371;28;1250;-71
2023/01/26 12:55:33;;;;;;;;;;;;;;;;;;5093270;28;962;-71
2023/01/26 12:58:05;;;;;;;;;;;;;;;;;;5092021;28;1293;-71
2023/01/26 13:00:32;;;;;;;;;;;;;;;;;;5091918;28;1257;-70
2023/01/26 13:03:03;;;;;;;;;;;;;;;;;;5092265;28;1225;-71
2023/01/26 13:05:32;;;;;;;;;;;;;;;;;;5093248;28;1906;-71
2023/01/26 13:08:18;;;;;;;;;;;;;;;;;;5093701;28;883;-71
2023/01/26 13:10:46;;;;;;;;;;;;;;;;;;5092703;28;1008;-71
2023/01/26 13:13:18;;;;;;;;;;;;;;;;;;5093532;28;871;-72
2023/01/26 13:15:43;;;;;;;;;;;;;;;;;;5091374;28;1190;-71
2023/01/26 13:18:11;;;;;;;;;;;;;;;;;;5091789;28;867;-72
2023/01/26 13:20:39;;;;;;;;;;;;;;;;;;5094050;28;824;-71
2023/01/26 13:23:24;;;;;;;;;;;;;;;;;;5092346;28;1090;-71
2023/01/26 13:26:09;;;;;;;;;;;;;;;;;;5091153;28;1972;-71
2023/01/26 13:28:34;;;;;;;;;;;;;;;;;;5092259;28;1334;-71
2023/01/26 13:31:04;;;;;;;;;;;;;;;;;;5090488;28;765;-72
2023/01/26 13:33:30;;;;;;;;;;;;;;;;;;5092799;28;868;-71
2023/01/26 13:35:57;;;;;;;;;;;;;;;;;;5091372;28;990;-71
2023/01/26 13:38:27;;;;;;;;;;;;;;;;;;5089862;28;1170;-71
2023/01/26 13:40:53;;;;;;;;;;;;;;;;;;5089065;28;1320;-70
2023/01/26 13:43:26;;;;;;;;;;;;;;;;;;5090135;28;868;-72
2023/01/26 13:46:10;;;;;;;;;;;;;;;;;;5089797;28;1901;-71
2023/01/26 13:48:39;;;;;;;;;;;;;;;;;;5089648;28;1111;-72
2023/01/26 13:51:06;;;;;;;;;;;;;;;;;;5089600;28;1174;-72
2023/01/26 13:53:42;;;;;;;;;;;;;;;;;;5090418;28;1162;-71
2023/01/26 13:56:22;;;;;;;;;;;;;;;;;;5092424;28;884;-72
2023/01/26 13:58:47;;;;;;;;;;;;;;;;;;5090621;28;1066;-73
2023/01/26 14:01:13;;;;;;;;;;;;;;;;;;5091320;28;1343;-72
2023/01/26 14:03:39;;;;;;;;;;;;;;;;;;5091714;28;899;-71
2023/01/26 14:06:07;;;;;;;;;;;;;;;;;;5091752;28;1957;-72
2023/01/26 14:08:33;;;;;;;;;;;;;;;;;;5091903;28;817;-72
2023/01/26 14:11:01;;;;;;;;;;;;;;;;;;5091609;28;844;-72
2023/01/26 14:13:30;;;;;;;;;;;;;;;;;;5091895;28;938;-71
2023/01/26 14:15:59;;;;;;;;;;;;;;;;;;5091768;28;808;-71
2023/01/26 14:18:25;;;;;;;;;;;;;;;;;;5092193;28;876;-75
2023/01/26 14:20:56;;;;;;;;;;;;;;;;;;5090988;28;1194;-74
2023/01/26 14:23:22;;;;;;;;;;;;;;;;;;5091459;28;904;-74
2023/01/26 14:25:59;;;;;;;;;;;;;;;;;;5090848;28;1914;-74
2023/01/26 14:28:30;;;;;;;;;;;;;;;;;;5092353;28;1199;-74
2023/01/26 14:31:01;;;;;;;;;;;;;;;;;;5092949;28;833;-74
2023/01/26 14:33:26;;;;;;;;;;;;;;;;;;5092613;28;900;-74
2023/01/26 14:35:59;;;;;;;;;;;;;;;;;;5093016;28;931;-74
2023/01/26 14:38:27;;;;;;;;;;;;;;;;;;5091296;28;1158;-75
2023/01/26 14:40:54;;;;;;;;;;;;;;;;;;5091495;28;1345;-74
2023/01/26 14:43:20;;;;;;;;;;;;;;;;;;5094799;28;1146;-75
2023/01/26 14:46:12;;;;;;;;;;;;;;;;;;5095545;28;1917;-75
2023/01/26 14:48:40;;;;;;;;;;;;;;;;;;5094706;28;1111;-74
2023/01/26 14:51:09;;;;;;;;;;;;;;;;;;5096631;28;883;-74
2023/01/26 14:53:35;;;;;;;;;;;;;;;;;;5096806;28;860;-74
2023/01/26 14:56:00;;;;;;;;;;;;;;;;;;5095185;28;963;-75
2023/01/26 14:58:30;;;;;;;;;;;;;;;;;;5078644;28;1321;-74
2023/01/26 15:00:57;;;;;;;;;;;;;;;;;;5099146;28;1050;-74
2023/01/26 15:03:33;;;;;;;;;;;;;;;;;;5100322;28;930;-74
2023/01/26 15:06:17;;;;;;;;;;;;;;;;;;5100932;28;1910;-74
2023/01/26 15:08:52;;;;;;;;;;;;;;;;;;5101302;28;1014;-74
2023/01/26 15:14:24;;;;;;;;;;;;;;;;;;5101643;28;998;-74
2023/01/26 15:16:51;;;;;;;;;;;;;;;;;;5099792;28;1233;-75
2023/01/26 15:19:24;;;;;;;;;;;;;;;;;;5098754;28;1286;-74
2023/01/26 15:21:50;;;;;;;;;;;;;;;;;;5099130;28;1322;-74
2023/01/26 15:24:15;;;;;;;;;;;;;;;;;;5103034;28;965;-76
2023/01/26 15:26:41;;;;;;;;;;;;;;;;;;5106920;28;1910;-74
2023/01/26 15:29:29;;;;;;;;;;;;;;;;;;5108531;28;1226;-74
2023/01/26 15:31:55;;;;;;;;;;;;;;;;;;5097596;28;1186;-74
2023/01/26 15:34:35;;;;;;;;;;;;;;;;;;5112962;28;1108;-74
2023/01/26 15:37:02;;;;;;;;;;;;;;;;;;5112297;28;891;-73
2023/01/26 15:39:27;;;;;;;;;;;;;;;;;;5112833;28;828;-73
2023/01/26 15:42:00;;;;;;;;;;;;;;;;;;5112222;28;1182;-74
2023/01/26 15:44:26;;;;;;;;;;;;;;;;;;5111989;28;1223;-75
2023/01/26 15:46:54;;;;;;;;;;;;;;;;;;5112182;28;1894;-74
2023/01/26 15:49:21;;;;;;;;;;;;;;;;;;5111058;28;1265;-74
2023/01/26 15:51:47;;;;;;;;;;;;;;;;;;5094627;28;1317;-74
2023/01/26 15:54:12;;;;;;;;;;;;;;;;;;5110597;28;1190;-74
2023/01/26 15:56:38;;;;;;;;;;;;;;;;;;5111028;28;1163;-73
2023/01/26 15:59:03;;;;;;;;;;;;;;;;;;5113136;28;816;-74
2023/01/26 16:01:28;;;;;;;;;;;;;;;;;;5111768;28;1054;-73
2023/01/26 16:03:54;;;;;;;;;;;;;;;;;;5103969;28;1027;-75
2023/01/26 16:06:26;;;;;;;;;;;;;;;;;;5097763;28;1917;-74
2023/01/26 16:08:53;;;;;;;;;;;;;;;;;;5098620;28;1114;-75
2023/01/26 16:11:19;;;;;;;;;;;;;;;;;;5098087;28;840;-74
2023/01/26 16:13:45;;;;;;;;;;;;;;;;;;5097424;28;1496;-75
2023/01/26 16:16:10;;;;;;;;;;;;;;;;;;5097539;28;800;-75
2023/01/26 16:18:36;;;;;;;;;;;;;;;;;;5096479;28;1128;-74
2023/01/26 16:21:09;;;;;;;;;;;;;;;;;;5095357;28;966;-75
2023/01/26 16:23:35;;;;;;;;;;;;;;;;;;5096247;28;1229;-74
2023/01/26 16:26:01;;;;;;;;;;;;;;;;;;5096033;28;1894;-75
2023/01/26 16:28:26;;;;;;;;;;;;;;;;;;5095814;28;1144;-75
2023/01/26 16:30:52;;;;;;;;;;;;;;;;;;5096257;28;951;-74
2023/01/26 16:33:20;;;;;;;;;;;;;;;;;;5097990;28;935;-74
2023/01/26 16:35:45;;;;;;;;;;;;;;;;;;5096337;28;904;-74
2023/01/26 16:38:12;;;;;;;;;;;;;;;;;;5093187;28;892;-74
2023/01/26 16:40:38;;;;;;;;;;;;;;;;;;5094726;28;1305;-75
2023/01/26 16:43:03;;;;;;;;;;;;;;;;;;5094709;28;1040;-74
2023/01/26 16:45:29;;;;;;;;;;;;;;;;;;5093557;28;817;-74
2023/01/26 16:47:55;;;;;;;;;;;;;;;;;;5095454;28;1901;-75
2023/01/26 16:50:22;;;;;;;;;;;;;;;;;;5096158;28;892;-76
2023/01/26 16:52:47;;;;;;;;;;;;;;;;;;5094197;28;1361;-74
2023/01/26 16:55:14;;;;;;;;;;;;;;;;;;5092968;28;1278;-75
2023/01/26 16:57:40;;;;;;;;;;;;;;;;;;5093658;28;1163;-75
2023/01/26 17:00:06;;;;;;;;;;;;;;;;;;5094602;28;863;-74
2023/01/26 17:02:33;;;;;;;;;;;;;;;;;;5092326;28;1033;-75
2023/01/26 17:04:59;;;;;;;;;;;;;;;;;;5094692;28;876;-75
2023/01/26 17:07:24;;;;;;;;;;;;;;;;;;5075508;28;1953;-75
2023/01/26 17:09:49;;;;;;;;;;;;;;;;;;5092413;28;1164;-74
2023/01/26 17:12:15;;;;;;;;;;;;;;;;;;5092072;28;864;-74
2023/01/26 17:14:40;;;;;;;;;;;;;;;;;;5092789;28;1221;-74
2023/01/26 17:17:15;;;;;;;;;;;;;;;;;;5075779;28;1081;-74
2023/01/26 17:19:41;;;;;;;;;;;;;;;;;;5074804;28;1221;-74
2023/01/26 17:22:06;;;;;;;;;;;;;;;;;;5091728;28;1110;-76
2023/01/26 17:24:32;;;;;;;;;;;;;;;;;;5092773;28;816;-74
2023/01/26 17:26:57;;;;;;;;;;;;;;;;;;5075104;28;1937;-74
2023/01/26 17:29:22;;;;;;;;;;;;;;;;;;5074404;28;1222;-73
2023/01/26 17:31:47;;;;;;;;;;;;;;;;;;5075058;28;1321;-73
2023/01/26 17:34:13;;;;;;;;;;;;;;;;;;5090971;28;908;-72
2023/01/26 17:36:38;;;;;;;;;;;;;;;;;;5091563;28;1229;-73
2023/01/26 17:39:03;;;;;;;;;;;;;;;;;;5093216;28;798;-72
2023/01/26 17:41:29;;;;;;;;;;;;;;;;;;5092785;28;1090;-72
2023/01/26 17:43:54;;;;;;;;;;;;;;;;;;5094181;28;1186;-71
2023/01/26 17:46:20;;;;;;;;;;;;;;;;;;5092068;28;1965;-72
2023/01/26 17:48:46;;;;;;;;;;;;;;;;;;5098005;28;1135;-72
2023/01/26 17:51:19;;;;;;;;;;;;;;;;;;5090866;28;1495;-72
2023/01/26 17:53:45;;;;;;;;;;;;;;;;;;5091085;28;1384;-72
2023/01/26 17:56:12;;;;;;;;;;;;;;;;;;5092941;28;1198;-73
2023/01/26 17:58:37;;;;;;;;;;;;;;;;;;5101815;28;1159;-72
2023/01/26 18:01:06;;;;;;;;;;;;;;;;;;5095616;28;1164;-73
2023/01/26 18:03:32;;;;;;;;;;;;;;;;;;5090685;28;1345;-73